Dearing, Georgia
Current Conditions -  °F | °C
As of 3:35 PM on Monday 22 Dec 2014 (Local Time) from KHQU Reporting Station
Overcast Overcast  
Wind Chill: 44°   Ceiling: 500
Heat Index: 47°   Visibility: 3mi
Dew Point: 47°   Wind: 7mph
Humidity: 100%   Direction: 30°NNE
Pressure: 30"   Gusts: NA
Location:  33.41°N, 82.39°W
Report Text: KHQU 222035Z AUTO 03006KT 3SM OVC005 08/08 A3000 RMK AO1 T00830083
Loading
Personal Weather Stations






























Interactive Weather Map New forecast layout! Learn more

10-Day Weather Forecast

Advertisements
Track Severe Weather on mobile